Time;durP1;ratioP1;P1;durP2;ratioP2;P2;SDS_P1;SDS_P2;PMS_P1;PMS_P2;Temp;Humidity;BMP_temperature;BMP_pressure;BME280_temperature;BME280_humidity;BME280_pressure;Samples;Min_cycle;Max_cycle;Signal;HPM_P1;HPM_P2
2023/01/13 00:01:19;;;;;;;23.58;4.55;;;8.70;99.90;;;;;;5082048;28;20412;-58
2023/01/13 00:03:45;;;;;;;24.55;4.28;;;8.70;99.90;;;;;;5079541;28;20055;-58
2023/01/13 00:06:20;;;;;;;20.15;4.22;;;8.70;99.90;;;;;;5081560;28;20067;-57
2023/01/13 00:08:50;;;;;;;24.63;4.53;;;8.60;99.90;;;;;;5081626;28;20044;-58
2023/01/13 00:11:16;;;;;;;24.75;4.85;;;8.60;99.90;;;;;;5060960;28;20055;-58
2023/01/13 00:13:42;;;;;;;26.65;4.80;;;8.50;99.90;;;;;;5081756;28;20068;-58
2023/01/13 00:16:11;;;;;;;23.75;3.95;;;8.50;99.90;;;;;;5078768;28;20409;-58
2023/01/13 00:18:37;;;;;;;21.35;5.20;;;8.50;99.90;;;;;;5081799;28;20033;-58
2023/01/13 00:21:06;;;;;;;29.92;5.32;;;8.60;99.90;;;;;;5079693;28;20079;-58
2023/01/13 00:23:33;;;;;;;28.30;4.82;;;8.50;99.90;;;;;;5080436;28;20044;-58
2023/01/13 00:26:04;;;;;;;31.52;5.47;;;8.40;99.90;;;;;;5081385;28;20393;-58
2023/01/13 00:28:30;;;;;;;26.17;5.13;;;8.50;99.90;;;;;;5078611;28;20064;-58
2023/01/13 00:31:02;;;;;;;32.97;5.60;;;8.40;99.90;;;;;;5081562;28;20299;-58
2023/01/13 00:33:28;;;;;;;;;;;8.40;99.90;;;;;;5079109;28;20040;-59
2023/01/13 00:35:57;;;;;;;28.42;4.68;;;8.40;99.90;;;;;;5081178;28;19963;-58
2023/01/13 00:38:23;;;;;;;23.20;4.65;;;8.40;99.90;;;;;;5079877;28;20049;-58
2023/01/13 00:41:04;;;;;;;36.50;6.28;;;8.30;99.90;;;;;;5079729;28;20032;-59
2023/01/13 00:43:31;;;;;;;32.83;5.80;;;8.40;99.90;;;;;;5081097;28;20048;-58
2023/01/13 00:45:57;;;;;;;31.23;5.72;;;8.30;99.90;;;;;;5078368;28;20041;-58
2023/01/13 00:48:23;;;;;;;28.73;5.30;;;8.30;99.90;;;;;;5062944;28;20143;-58
2023/01/13 00:50:56;;;;;;;29.15;5.38;;;8.30;99.90;;;;;;5078517;28;20124;-57
2023/01/13 00:53:23;;;;;;;26.73;4.90;;;8.20;99.90;;;;;;5045517;28;20132;-58
2023/01/13 00:55:49;;;;;;;23.33;4.68;;;8.20;99.90;;;;;;5080671;28;20052;-57
2023/01/13 00:58:14;;;;;;;27.85;4.97;;;8.10;99.90;;;;;;5078445;28;20040;-58
2023/01/13 01:00:41;;;;;;;31.33;5.68;;;8.10;99.90;;;;;;5080829;28;20090;-58
2023/01/13 01:03:11;;;;;;;36.10;6.05;;;8.10;99.90;;;;;;5077093;28;20153;-58
2023/01/13 01:05:38;;;;;;;35.65;5.85;;;8.10;99.90;;;;;;5081005;28;20896;-58
2023/01/13 01:08:04;;;;;;;35.58;6.60;;;8.10;99.90;;;;;;5078213;28;20539;-58
2023/01/13 01:10:30;;;;;;;33.65;5.43;;;8.10;99.90;;;;;;5079846;28;20052;-58
2023/01/13 01:12:56;;;;;;;33.85;5.55;;;8.10;99.90;;;;;;5079904;28;20074;-58
2023/01/13 01:15:21;;;;;;;26.13;5.32;;;8.10;99.90;;;;;;5078392;28;20044;-58
2023/01/13 01:17:47;;;;;;;29.85;5.45;;;8.00;99.90;;;;;;5080742;28;20044;-58
2023/01/13 01:20:13;;;;;;;31.80;5.63;;;8.10;99.90;;;;;;5077646;28;20083;-58
2023/01/13 01:22:38;;;;;;;26.30;5.55;;;8.10;99.90;;;;;;5080601;28;20049;-58
2023/01/13 01:25:04;;;;;;;38.97;6.55;;;8.00;99.90;;;;;;5059932;28;20044;-58
2023/01/13 01:27:30;;;;;;;37.70;7.28;;;8.00;99.90;;;;;;5080475;28;20055;-58
2023/01/13 01:29:56;;;;;;;29.30;5.88;;;8.10;99.90;;;;;;5061335;28;20131;-57
2023/01/13 01:32:21;;;;;;;33.05;6.07;;;8.10;99.90;;;;;;5078519;28;20088;-57
2023/01/13 01:34:47;;;;;;;31.23;5.85;;;8.10;99.90;;;;;;5062510;28;20044;-58
2023/01/13 01:37:12;;;;;;;27.00;5.10;;;7.90;99.90;;;;;;5077417;28;20071;-58
2023/01/13 01:39:38;;;;;;;35.10;7.57;;;8.00;99.90;;;;;;5080669;28;20061;-58
2023/01/13 01:44:57;;;;;;;35.15;5.95;;;7.90;99.90;;;;;;5079630;28;20056;-58
2023/01/13 01:47:24;;;;;;;32.70;6.15;;;7.90;99.90;;;;;;5080272;28;20044;-58
2023/01/13 01:49:50;;;;;;;32.25;5.93;;;8.00;99.90;;;;;;5077717;28;20052;-58
2023/01/13 01:52:40;;;;;;;29.92;5.43;;;7.90;99.90;;;;;;5080243;28;20040;-58
2023/01/13 01:55:12;;;;;;;37.45;5.97;;;7.90;99.90;;;;;;5090188;28;20051;-58
2023/01/13 01:57:59;;;;;;;25.13;5.28;;;7.90;99.90;;;;;;5100021;28;20040;-58
2023/01/13 02:00:26;;;;;;;32.65;5.68;;;7.80;99.90;;;;;;5100704;28;20048;-58
2023/01/13 02:02:52;;;;;;;30.08;5.95;;;7.80;99.90;;;;;;5097502;28;20515;-58
2023/01/13 02:05:18;;;;;;;47.78;6.55;;;7.90;99.90;;;;;;5100373;28;20040;-58
2023/01/13 02:07:47;;;;;;;26.00;6.30;;;7.90;99.90;;;;;;5097343;28;20472;-58
2023/01/13 02:10:16;;;;;;;29.85;5.10;;;8.00;99.90;;;;;;5100417;28;20036;-58
2023/01/13 02:12:43;;;;;;;40.08;5.25;;;7.80;99.90;;;;;;5099074;28;20090;-58
2023/01/13 02:15:19;;;;;;;36.70;6.18;;;7.90;99.90;;;;;;5101914;28;20066;-58
2023/01/13 02:18:09;;;;;;;29.45;4.95;;;7.90;99.90;;;;;;5104416;28;20060;-58
2023/01/13 02:21:03;;;;;;;36.90;6.78;;;7.90;99.90;;;;;;5101591;28;20127;-58
2023/01/13 02:26:50;;;;;;;34.63;6.32;;;8.00;99.90;;;;;;5103965;28;20059;-58
2023/01/13 02:32:41;;;;;;;29.50;5.05;;;7.90;99.90;;;;;;5101638;28;20408;-58
2023/01/13 02:35:20;;;;;;;51.63;6.18;;;7.90;99.90;;;;;;5104027;28;20048;-57
2023/01/13 02:37:46;;;;;;;30.38;5.20;;;7.90;99.90;;;;;;5101014;28;20051;-58
2023/01/13 02:40:24;;;;;;;32.75;4.72;;;7.80;99.90;;;;;;5103662;28;20040;-58
2023/01/13 02:46:26;;;;;;;32.67;5.55;;;7.80;99.90;;;;;;5100718;28;20050;-58
2023/01/13 02:48:54;;;;;;;39.67;6.55;;;7.70;99.90;;;;;;5103466;28;20036;-58
2023/01/13 02:51:22;;;;;;;29.63;6.72;;;7.70;99.90;;;;;;5102696;28;20472;-57
2023/01/13 02:54:03;;;;;;;35.97;5.93;;;7.80;99.90;;;;;;5099124;28;20096;-58
2023/01/13 02:56:31;;;;;;;31.20;6.50;;;7.80;99.90;;;;;;5083454;28;20049;-57
2023/01/13 02:58:58;;;;;;;35.45;5.95;;;7.90;99.90;;;;;;5080108;28;20115;-58
2023/01/13 03:01:24;;;;;;;36.53;6.38;;;7.90;99.90;;;;;;5083267;28;20131;-57
2023/01/13 03:03:50;;;;;;;31.45;5.82;;;7.90;99.90;;;;;;5080698;28;20074;-58
2023/01/13 03:06:19;;;;;;;34.88;5.93;;;7.90;99.90;;;;;;5082151;28;20650;-58
2023/01/13 03:08:49;;;;;;;45.35;7.03;;;7.90;99.90;;;;;;5082580;28;20045;-57
2023/01/13 03:11:19;;;;;;;32.60;6.15;;;7.90;99.90;;;;;;5080373;28;20404;-58
2023/01/13 03:14:01;;;;;;;32.35;6.50;;;8.00;99.90;;;;;;5082881;28;20045;-58
2023/01/13 03:16:29;;;;;;;38.13;6.07;;;8.00;99.90;;;;;;5080295;28;20067;-58
2023/01/13 03:19:01;;;;;;;28.75;5.50;;;8.10;99.90;;;;;;5082341;28;20048;-58
2023/01/13 03:22:06;;;;;;;35.85;8.20;;;8.10;99.90;;;;;;5082538;28;20044;-57
2023/01/13 03:24:59;;;;;;;33.40;5.22;;;8.10;99.90;;;;;;5032150;28;20052;-57
2023/01/13 03:27:34;;;;;;;32.53;7.15;;;8.10;99.90;;;;;;5082274;28;20057;-58
2023/01/13 03:30:08;;;;;;;28.40;5.38;;;8.10;99.90;;;;;;5081828;28;20063;-58
2023/01/13 03:32:54;;;;;;;29.58;5.03;;;8.10;99.90;;;;;;5061991;28;20028;-58
2023/01/13 03:35:32;;;;;;;32.28;5.95;;;8.10;99.90;;;;;;5064356;28;20048;-56
2023/01/13 03:38:17;;;;;;;33.63;5.60;;;8.10;99.90;;;;;;5080227;28;20096;-56
2023/01/13 03:40:48;;;;;;;29.67;4.90;;;8.10;99.90;;;;;;5081018;28;20036;-58
2023/01/13 03:46:12;;;;;;;28.25;5.25;;;8.10;99.90;;;;;;5079450;28;20063;-58
2023/01/13 03:48:41;;;;;;;25.40;4.40;;;8.10;99.90;;;;;;5082332;28;20068;-58
2023/01/13 03:51:12;;;;;;;26.83;4.55;;;8.10;99.90;;;;;;5080810;28;20033;-58
2023/01/13 03:53:45;;;;;;;24.73;4.40;;;8.10;99.90;;;;;;5081039;28;20051;-58
2023/01/13 03:56:27;;;;;;;33.80;6.20;;;8.10;99.90;;;;;;5102387;28;20040;-58
2023/01/13 03:58:53;;;;;;;27.08;5.05;;;8.10;99.90;;;;;;5099614;28;20047;-58
2023/01/13 04:01:31;;;;;;;27.98;7.47;;;8.10;99.90;;;;;;5102464;28;20069;-58
2023/01/13 04:04:06;;;;;;;24.25;4.03;;;8.10;99.90;;;;;;5100222;28;20508;-58
2023/01/13 04:07:13;;;;;;;24.83;5.07;;;8.10;99.90;;;;;;5099934;28;20546;-57
2023/01/13 04:09:58;;;;;;;27.13;4.95;;;8.00;99.90;;;;;;5102220;28;20071;-57
2023/01/13 04:13:04;;;;;;;29.45;5.13;;;8.00;99.90;;;;;;5099995;28;20029;-58
2023/01/13 04:15:26;;;;;;;28.50;6.00;;;8.00;99.90;;;;;;5095309;28;20036;-58
2023/01/13 04:17:53;;;;;;;24.80;4.97;;;8.00;99.90;;;;;;5102056;28;20052;-58
2023/01/13 04:20:19;;;;;;;28.25;5.18;;;8.10;99.90;;;;;;5098778;28;20036;-58
2023/01/13 04:22:44;;;;;;;30.15;4.18;;;8.00;99.90;;;;;;5101692;28;20074;-57
2023/01/13 04:25:10;;;;;;;31.27;5.57;;;8.10;99.90;;;;;;5099213;28;20047;-57
2023/01/13 04:27:36;;;;;;;26.77;4.65;;;8.00;99.90;;;;;;5101013;28;20055;-58
2023/01/13 04:30:03;;;;;;;30.90;5.55;;;8.00;99.90;;;;;;5101411;28;20036;-58
2023/01/13 04:32:28;;;;;;;29.58;5.03;;;8.10;99.90;;;;;;5099417;28;20040;-58
2023/01/13 04:34:54;;;;;;;27.45;5.25;;;8.10;99.90;;;;;;5101628;28;20054;-58
2023/01/13 04:37:20;;;;;;;30.23;5.95;;;8.10;99.90;;;;;;5098513;28;20044;-58
2023/01/13 04:39:45;;;;;;;24.63;4.80;;;8.10;99.90;;;;;;5101437;28;20095;-58
2023/01/13 04:42:11;;;;;;;27.02;5.63;;;8.20;99.90;;;;;;5098894;28;20055;-58
2023/01/13 04:44:37;;;;;;;29.63;4.57;;;8.20;99.90;;;;;;5101091;28;20575;-58
2023/01/13 04:47:04;;;;;;;34.33;5.18;;;8.20;99.90;;;;;;5100582;28;20040;-58
2023/01/13 04:49:30;;;;;;;28.60;4.63;;;8.20;99.90;;;;;;5099424;28;20070;-58
2023/01/13 04:51:55;;;;;;;21.80;4.18;;;8.20;99.90;;;;;;5101244;28;20056;-58
2023/01/13 04:54:21;;;;;;;28.15;5.38;;;8.30;99.90;;;;;;5091475;28;20076;-58
2023/01/13 04:56:47;;;;;;;29.73;4.78;;;8.30;99.90;;;;;;5080971;28;20040;-58
2023/01/13 04:59:13;;;;;;;28.70;4.70;;;8.20;99.90;;;;;;5078368;28;20040;-57
2023/01/13 05:01:39;;;;;;;27.10;4.38;;;8.30;99.90;;;;;;5100169;28;20036;-58
2023/01/13 05:04:06;;;;;;;22.00;4.93;;;8.30;99.90;;;;;;5099978;28;20392;-58
2023/01/13 05:06:32;;;;;;;21.75;4.40;;;8.30;99.90;;;;;;5099065;28;20040;-57
2023/01/13 05:08:57;;;;;;;23.67;3.92;;;8.40;99.90;;;;;;5101075;28;20109;-58
2023/01/13 05:17:00;;;;;;;24.20;4.82;;;8.40;99.90;;;;;;5099517;28;20562;-58
2023/01/13 05:19:27;;;;;;;23.77;4.47;;;8.40;99.90;;;;;;5098825;28;20043;-58
2023/01/13 05:27:22;;;;;;;18.15;4.85;;;8.50;99.90;;;;;;5100514;28;20123;-59
2023/01/13 05:29:47;;;;;;;26.13;3.92;;;8.50;99.90;;;;;;5099535;28;20048;-58
2023/01/13 05:32:13;;;;;;;29.75;4.95;;;8.50;99.90;;;;;;5098697;28;20108;-57
2023/01/13 05:34:39;;;;;;;22.73;4.35;;;8.40;99.90;;;;;;5100976;28;20052;-57
2023/01/13 05:37:06;;;;;;;22.15;3.30;;;8.50;99.90;;;;;;5097640;28;20476;-58
2023/01/13 05:43:18;;;;;;;26.67;3.42;;;8.40;99.90;;;;;;5098290;28;20044;-58
2023/01/13 05:45:03;;;;;;;20.05;4.32;;;8.40;99.90;;;;;;5098699;28;20482;-58
2023/01/13 05:47:28;;;;;;;24.75;3.60;;;8.40;99.90;;;;;;5100661;28;20072;-58
2023/01/13 05:49:54;;;;;;;20.52;3.83;;;8.50;99.90;;;;;;5096938;28;20140;-57
2023/01/13 05:52:19;;;;;;;20.63;4.43;;;8.40;99.90;;;;;;5082110;28;20090;-57
2023/01/13 05:54:45;;;;;;;23.30;5.07;;;8.50;99.90;;;;;;5087404;28;20045;-58
2023/01/13 05:57:11;;;;;;;24.77;4.18;;;8.50;99.90;;;;;;5080152;28;20044;-58
2023/01/13 05:59:36;;;;;;;18.38;3.17;;;8.40;99.90;;;;;;5078606;28;20048;-58
2023/01/13 06:02:02;;;;;;;24.88;4.03;;;8.40;99.90;;;;;;5078884;28;20144;-58
2023/01/13 06:04:27;;;;;;;19.67;3.50;;;8.40;99.90;;;;;;5080064;28;20110;-58
2023/01/13 06:06:54;;;;;;;19.52;4.70;;;8.40;99.90;;;;;;5077363;28;20039;-58
2023/01/13 06:09:21;;;;;;;18.63;3.88;;;8.50;99.90;;;;;;5080419;28;20045;-58
2023/01/13 06:11:47;;;;;;;17.30;3.20;;;8.40;99.90;;;;;;5076994;28;20052;-58
2023/01/13 06:14:13;;;;;;;20.05;4.45;;;8.30;99.90;;;;;;5080037;28;20048;-58
2023/01/13 06:16:39;;;;;;;22.65;3.97;;;8.20;99.90;;;;;;5077892;28;20047;-58
2023/01/13 06:19:11;;;;;;;23.67;4.20;;;8.20;99.90;;;;;;5094738;28;20105;-58
2023/01/13 06:21:38;;;;;;;27.42;3.92;;;8.10;99.90;;;;;;5100079;28;20048;-58
2023/01/13 06:24:04;;;;;;;20.48;4.18;;;8.10;99.90;;;;;;5097698;28;20052;-58
2023/01/13 06:26:36;;;;;;;25.00;3.83;;;8.10;99.90;;;;;;5099867;28;20428;-58
2023/01/13 06:29:01;;;;;;;23.20;4.43;;;8.00;99.90;;;;;;5097334;28;20048;-58
2023/01/13 06:31:27;;;;;;;23.83;4.25;;;8.10;99.90;;;;;;5100253;28;20040;-58
2023/01/13 06:34:01;;;;;;;26.65;4.78;;;8.10;99.90;;;;;;5098263;28;20104;-56
2023/01/13 06:36:39;;;;;;;22.58;3.67;;;8.10;99.90;;;;;;5098375;28;20040;-58
2023/01/13 06:39:05;;;;;;;19.65;4.90;;;8.20;99.90;;;;;;5099545;28;20044;-58
2023/01/13 06:44:19;;;;;;;22.15;3.40;;;8.10;99.90;;;;;;5100095;28;20055;-58
2023/01/13 06:46:45;;;;;;;18.33;3.42;;;8.10;99.90;;;;;;5098267;28;20044;-58
2023/01/13 06:49:11;;;;;;;21.30;3.85;;;8.20;99.90;;;;;;5098436;28;20032;-58
2023/01/13 06:51:36;;;;;;;16.25;3.33;;;8.00;99.90;;;;;;5100083;28;20070;-58
2023/01/13 06:54:02;;;;;;;22.77;4.30;;;7.90;99.90;;;;;;5096782;28;20357;-57
2023/01/13 06:56:28;;;;;;;16.35;4.10;;;7.90;99.90;;;;;;5099990;28;20055;-58
2023/01/13 06:58:54;;;;;;;20.42;3.55;;;7.90;99.90;;;;;;5078616;28;20040;-58
2023/01/13 07:01:19;;;;;;;19.23;4.43;;;7.80;99.90;;;;;;5101633;28;20044;-56
2023/01/13 07:03:45;;;;;;;18.50;3.65;;;7.80;99.90;;;;;;5101148;28;20066;-57
2023/01/13 07:06:11;;;;;;;19.67;3.50;;;7.80;99.90;;;;;;5084213;28;20051;-59
2023/01/13 07:08:36;;;;;;;18.70;3.40;;;7.70;99.90;;;;;;5103249;28;20079;-57
2023/01/13 07:11:02;;;;;;;18.10;3.53;;;7.50;99.90;;;;;;5082543;28;20067;-58
2023/01/13 07:16:12;;;;;;;19.65;3.40;;;7.50;99.90;;;;;;5084887;28;20055;-58
2023/01/13 07:18:38;;;;;;;19.52;3.38;;;7.40;99.90;;;;;;5100842;28;20040;-59
2023/01/13 07:21:06;;;;;;;18.15;3.50;;;7.40;99.90;;;;;;5098110;28;20040;-58
2023/01/13 07:23:36;;;;;;;21.58;3.55;;;7.30;99.90;;;;;;5097323;28;20145;-58
2023/01/13 07:26:02;;;;;;;17.85;3.88;;;7.50;99.90;;;;;;5093012;28;20056;-58
2023/01/13 07:28:29;;;;;;;22.27;3.58;;;7.40;99.90;;;;;;5075843;28;20048;-58
2023/01/13 07:30:55;;;;;;;19.00;4.43;;;7.40;99.90;;;;;;5060587;28;20048;-58
2023/01/13 07:33:21;;;;;;;17.52;3.50;;;7.40;99.90;;;;;;5075789;28;20674;-58
2023/01/13 07:35:54;;;;;;;24.75;3.70;;;7.30;99.90;;;;;;5078692;28;20068;-57
2023/01/13 07:38:19;;;;;;;17.60;3.95;;;7.40;99.90;;;;;;5082330;28;20082;-56
2023/01/13 07:40:45;;;;;;;19.30;4.47;;;7.30;99.90;;;;;;5085625;28;20045;-58
2023/01/13 07:43:31;;;;;;;22.63;3.60;;;7.50;99.90;;;;;;5083002;28;20036;-58
2023/01/13 07:45:59;;;;;;;27.00;4.70;;;7.50;99.90;;;;;;5093065;28;20044;-57
2023/01/13 07:48:25;;;;;;;24.00;4.00;;;7.50;99.90;;;;;;5098920;28;20036;-58
2023/01/13 07:50:51;;;;;;;16.60;3.42;;;7.50;99.90;;;;;;5096870;28;20040;-58
2023/01/13 07:53:18;;;;;;;19.08;2.88;;;7.50;99.90;;;;;;5097367;28;20032;-58
2023/01/13 07:55:44;;;;;;;14.20;3.60;;;7.50;99.90;;;;;;5090041;28;20078;-58
2023/01/13 07:58:10;;;;;;;15.98;3.15;;;7.50;99.90;;;;;;5095712;28;20089;-58
2023/01/13 08:00:37;;;;;;;18.88;3.78;;;7.50;99.90;;;;;;5098773;28;20051;-58
2023/01/13 08:03:03;;;;;;;15.88;2.70;;;7.50;99.90;;;;;;5095698;28;20482;-58
2023/01/13 08:05:28;;;;;;;11.90;3.65;;;7.50;99.90;;;;;;5098329;28;20048;-58
2023/01/13 08:07:54;;;;;;;19.30;4.57;;;7.60;99.90;;;;;;5095769;28;20100;-58
2023/01/13 08:10:19;;;;;;;18.00;4.57;;;7.60;99.90;;;;;;5097905;28;20040;-58
2023/01/13 08:15:31;;;;;;;14.02;2.55;;;7.70;99.90;;;;;;5095353;28;20043;-58
2023/01/13 08:17:58;;;;;;;25.10;3.38;;;7.70;99.90;;;;;;5098145;28;20047;-58
2023/01/13 08:20:24;;;;;;;20.88;4.65;;;7.70;99.90;;;;;;5094824;28;20086;-58
2023/01/13 08:22:54;;;;;;;20.15;3.28;;;7.70;99.90;;;;;;5098294;28;20036;-58
2023/01/13 08:25:20;;;;;;;16.77;4.10;;;7.70;99.90;;;;;;5096635;28;20039;-58
2023/01/13 08:27:48;;;;;;;16.27;4.35;;;7.80;99.90;;;;;;5096385;28;20062;-58
2023/01/13 08:30:14;;;;;;;20.23;4.30;;;7.80;99.90;;;;;;5097658;28;20092;-58
2023/01/13 08:32:42;;;;;;;18.33;3.10;;;7.80;99.90;;;;;;5095015;28;20113;-57
2023/01/13 08:35:08;;;;;;;17.25;3.50;;;7.90;99.90;;;;;;5098090;28;20044;-56
2023/01/13 08:37:33;;;;;;;22.63;4.40;;;7.80;99.90;;;;;;5094986;28;20097;-58
2023/01/13 08:39:59;;;;;;;20.13;3.55;;;7.90;99.90;;;;;;5097610;28;20606;-58
2023/01/13 08:42:25;;;;;;;16.92;3.08;;;7.90;99.90;;;;;;5095805;28;20044;-58
2023/01/13 08:44:54;;;;;;;17.50;3.10;;;8.00;99.90;;;;;;5096175;28;20098;-58
2023/01/13 08:47:20;;;;;;;16.35;3.72;;;8.00;99.90;;;;;;5097839;28;20040;-58
2023/01/13 08:49:45;;;;;;;17.88;3.70;;;7.90;99.90;;;;;;5094785;28;20092;-58
2023/01/13 08:52:11;;;;;;;18.38;3.80;;;7.80;99.90;;;;;;5097829;28;20047;-58
2023/01/13 08:54:38;;;;;;;20.35;3.38;;;7.80;99.90;;;;;;5094222;28;20536;-58
2023/01/13 08:57:04;;;;;;;19.02;3.03;;;7.80;99.90;;;;;;5097851;28;20039;-58
2023/01/13 08:59:30;;;;;;;16.95;2.40;;;7.80;99.90;;;;;;5077509;28;20044;-58
2023/01/13 09:01:56;;;;;;;18.92;3.20;;;7.80;99.90;;;;;;5096208;28;20040;-58
2023/01/13 09:04:23;;;;;;;17.00;3.13;;;7.80;99.90;;;;;;5097486;28;20044;-58
2023/01/13 09:06:50;;;;;;;17.08;2.65;;;7.70;99.90;;;;;;5094057;28;20056;-58
2023/01/13 09:09:15;;;;;;;12.60;2.55;;;7.70;99.90;;;;;;5079649;28;20042;-58
2023/01/13 09:14:30;;;;;;;16.42;3.58;;;7.30;99.90;;;;;;5096995;28;20048;-59
2023/01/13 09:16:56;;;;;;;22.40;3.97;;;7.30;99.90;;;;;;5096689;28;20036;-58
2023/01/13 09:19:22;;;;;;;16.15;2.97;;;7.30;99.90;;;;;;5094599;28;20046;-58
2023/01/13 09:21:48;;;;;;;11.27;2.55;;;7.30;99.90;;;;;;5097464;28;20040;-58
2023/01/13 09:24:13;;;;;;;18.00;3.50;;;7.30;99.90;;;;;;5075070;28;20048;-58
2023/01/13 09:26:39;;;;;;;15.40;2.60;;;7.30;99.90;;;;;;5096867;28;20051;-58
2023/01/13 09:29:05;;;;;;;15.65;2.85;;;7.30;99.90;;;;;;5094219;28;20046;-58
2023/01/13 09:31:33;;;;;;;14.30;2.97;;;7.40;99.90;;;;;;5070944;28;20486;-58
2023/01/13 09:36:45;;;;;;;16.25;2.80;;;7.40;99.90;;;;;;5092209;28;20047;-58
2023/01/13 09:39:11;;;;;;;17.23;3.22;;;7.30;99.90;;;;;;5078626;28;20045;-58
2023/01/13 09:44:48;;;;;;;17.05;2.80;;;7.30;99.90;;;;;;5076368;28;20110;-58
2023/01/13 09:47:20;;;;;;;22.45;3.45;;;7.40;99.90;;;;;;5078632;28;20135;-58
2023/01/13 09:49:46;;;;;;;16.40;3.00;;;7.30;99.90;;;;;;5076040;28;20070;-59
2023/01/13 09:52:18;;;;;;;18.35;3.13;;;7.30;99.90;;;;;;5079644;28;20096;-58
2023/01/13 09:54:49;;;;;;;18.73;3.25;;;7.20;99.90;;;;;;5086992;28;20650;-59
2023/01/13 09:57:16;;;;;;;19.45;3.60;;;7.20;99.90;;;;;;5100174;28;20044;-58
2023/01/13 09:59:43;;;;;;;16.15;4.63;;;7.20;99.90;;;;;;5098654;28;20043;-58
2023/01/13 10:02:30;;;;;;;17.83;2.42;;;7.30;99.90;;;;;;5079185;28;20067;-58
2023/01/13 10:05:14;;;;;;;18.48;3.53;;;7.30;99.90;;;;;;5099776;28;20108;-58
2023/01/13 10:07:54;;;;;;;12.32;3.42;;;7.30;99.90;;;;;;5097435;28;20051;-57
2023/01/13 10:10:45;;;;;;;21.48;3.80;;;7.30;99.90;;;;;;5099422;28;20108;-58
2023/01/13 10:13:32;;;;;;;20.45;2.90;;;7.30;99.90;;;;;;5100034;28;20158;-58
2023/01/13 10:16:20;;;;;;;15.23;2.72;;;7.40;99.90;;;;;;5096288;28;20100;-58
2023/01/13 10:19:27;;;;;;;19.55;2.75;;;7.50;99.90;;;;;;5099592;28;20526;-58
2023/01/13 10:22:14;;;;;;;18.40;2.65;;;7.60;99.90;;;;;;5018286;28;20044;-58
2023/01/13 10:25:03;;;;;;;14.45;2.90;;;7.60;99.90;;;;;;5076687;28;20059;-58
2023/01/13 10:27:36;;;;;;;17.13;3.45;;;7.80;99.90;;;;;;5078590;28;20052;-58
2023/01/13 10:30:14;;;;;;;15.13;3.58;;;7.70;99.90;;;;;;5080071;28;20052;-57
2023/01/13 10:32:45;;;;;;;13.70;3.05;;;7.70;99.90;;;;;;5076767;28;20232;-58
2023/01/13 10:35:11;;;;;;;12.15;2.38;;;7.80;99.90;;;;;;5063533;28;20044;-59
2023/01/13 10:37:36;;;;;;;21.45;4.28;;;7.70;99.90;;;;;;5062510;28;20047;-58
2023/01/13 10:40:06;;;;;;;12.73;2.35;;;7.80;99.90;;;;;;5083466;28;20044;-58
2023/01/13 10:42:31;;;;;;;15.82;3.40;;;7.80;99.90;;;;;;5082050;28;20036;-58
2023/01/13 10:44:59;;;;;;;14.10;2.53;;;7.80;99.90;;;;;;5063738;28;20105;-58
2023/01/13 10:47:33;;;;;;;16.00;3.70;;;7.80;99.90;;;;;;5083653;28;20036;-58
2023/01/13 10:50:12;;;;;;;15.75;3.35;;;7.80;99.90;;;;;;5080522;28;20051;-58
2023/01/13 10:52:58;;;;;;;11.43;3.80;;;7.90;99.90;;;;;;5083380;28;20044;-58
2023/01/13 10:55:33;;;;;;;15.32;3.22;;;7.80;99.90;;;;;;5098086;28;20130;-58
2023/01/13 10:58:15;;;;;;;13.93;2.95;;;7.90;99.90;;;;;;5101319;28;20085;-58
2023/01/13 11:00:41;;;;;;;15.70;2.47;;;7.80;99.90;;;;;;5103480;28;20044;-58
2023/01/13 11:03:22;;;;;;;12.48;3.00;;;8.00;99.90;;;;;;5092307;28;20046;-58
2023/01/13 11:05:53;;;;;;;11.70;2.63;;;8.00;99.90;;;;;;5085105;28;20048;-57
2023/01/13 11:08:23;;;;;;;12.93;2.28;;;8.00;99.90;;;;;;5101494;28;20047;-58
2023/01/13 11:10:54;;;;;;;15.85;2.92;;;8.00;99.90;;;;;;5101086;28;20495;-57
2023/01/13 11:13:34;;;;;;;6.60;1.77;;;8.00;99.90;;;;;;5102995;28;20040;-58
2023/01/13 11:16:14;;;;;;;15.50;3.13;;;8.10;99.90;;;;;;5100248;28;20035;-58
2023/01/13 11:19:12;;;;;;;11.90;4.22;;;8.00;99.90;;;;;;5103034;28;20101;-57
2023/01/13 11:21:52;;;;;;;12.68;2.72;;;8.00;99.90;;;;;;5103054;28;20392;-58
2023/01/13 11:24:43;;;;;;;17.08;3.58;;;8.10;99.90;;;;;;5099848;28;20093;-58
2023/01/13 11:27:40;;;;;;;13.57;3.33;;;8.10;99.90;;;;;;5102820;28;20065;-58
2023/01/13 11:30:31;;;;;;;11.55;2.30;;;8.10;99.90;;;;;;5097553;28;20052;-59
2023/01/13 11:33:13;;;;;;;15.57;3.83;;;8.10;99.90;;;;;;5099814;28;20071;-58
2023/01/13 11:35:48;;;;;;;15.90;3.15;;;8.10;99.90;;;;;;5103051;28;20036;-57
2023/01/13 11:38:37;;;;;;;13.02;2.25;;;8.10;99.90;;;;;;5083505;28;20055;-58
2023/01/13 11:41:21;;;;;;;15.38;2.70;;;8.10;99.90;;;;;;5081779;28;20100;-60
2023/01/13 11:43:58;;;;;;;15.30;3.10;;;8.10;99.90;;;;;;5102046;28;20048;-58
2023/01/13 11:46:26;;;;;;;14.82;2.47;;;8.20;99.90;;;;;;5099825;28;20056;-58
2023/01/13 11:48:55;;;;;;;13.10;2.25;;;8.30;99.90;;;;;;5101925;28;20040;-58
2023/01/13 11:51:34;;;;;;;13.77;2.38;;;8.30;99.90;;;;;;5102724;28;20055;-58
2023/01/13 11:54:24;;;;;;;8.73;2.28;;;8.00;99.90;;;;;;5095847;28;20043;-59
2023/01/13 11:57:27;;;;;;;13.80;2.55;;;8.10;99.90;;;;;;5082353;28;20044;-59
2023/01/13 12:00:30;;;;;;;14.07;2.95;;;8.10;99.90;;;;;;5081980;28;20055;-60
2023/01/13 12:03:17;;;;;;;15.73;2.67;;;8.20;99.90;;;;;;5079205;28;20059;-58
2023/01/13 12:06:16;;;;;;;11.68;2.40;;;8.20;99.90;;;;;;5081546;28;20052;-58
2023/01/13 12:08:53;;;;;;;11.38;2.40;;;8.20;99.90;;;;;;5081381;28;20070;-58
2023/01/13 12:14:41;;;;;;;12.45;2.65;;;8.30;99.90;;;;;;5080670;28;20067;-58
2023/01/13 12:17:21;;;;;;;17.27;2.80;;;8.30;99.90;;;;;;5081435;28;20044;-57
2023/01/13 12:19:49;;;;;;;11.32;2.50;;;8.40;99.90;;;;;;5078702;28;20051;-58
2023/01/13 12:22:26;;;;;;;10.45;2.97;;;8.50;99.90;;;;;;5080404;28;20078;-57
2023/01/13 12:25:29;;;;;;;15.05;3.40;;;8.50;99.90;;;;;;5078800;28;20052;-57
2023/01/13 12:28:12;;;;;;;9.13;2.70;;;8.50;99.90;;;;;;5060786;28;20067;-58
2023/01/13 12:30:54;;;;;;;16.98;3.65;;;8.40;99.90;;;;;;5063172;28;20059;-58
2023/01/13 12:33:44;;;;;;;11.18;2.75;;;8.40;99.90;;;;;;5078255;28;20047;-58
2023/01/13 12:36:30;;;;;;;10.77;2.50;;;8.60;99.90;;;;;;5081765;28;20037;-58
2023/01/13 12:39:28;;;;;;;14.18;2.05;;;8.70;99.90;;;;;;5090768;28;20511;-57
2023/01/13 12:45:08;;;;;;;15.10;3.80;;;8.70;99.90;;;;;;5089962;28;20086;-58
2023/01/13 12:47:37;;;;;;;11.88;3.65;;;8.70;99.90;;;;;;5101008;28;20052;-57
2023/01/13 12:50:21;;;;;;;11.30;2.90;;;8.70;99.90;;;;;;5098140;28;20460;-58
2023/01/13 12:52:48;;;;;;;12.98;2.58;;;8.60;99.90;;;;;;5082701;28;20095;-57
2023/01/13 12:55:20;;;;;;;12.05;2.25;;;8.60;99.90;;;;;;5090297;28;20040;-58
2023/01/13 12:58:09;;;;;;;15.27;2.67;;;8.50;99.90;;;;;;5089517;28;20099;-61
2023/01/13 13:00:41;;;;;;;14.55;2.75;;;8.50;99.90;;;;;;5083398;28;20437;-58
2023/01/13 13:03:09;;;;;;;10.50;2.80;;;8.40;99.90;;;;;;5077857;28;20033;-58
2023/01/13 13:05:47;;;;;;;18.55;2.88;;;8.50;99.90;;;;;;5080498;28;20303;-57
2023/01/13 13:08:21;;;;;;;12.93;2.80;;;8.40;99.90;;;;;;5062735;28;20045;-58
2023/01/13 13:13:16;;;;;;;14.23;3.40;;;8.50;99.90;;;;;;5078275;28;20054;-59
2023/01/13 13:13:58;;;;;;;14.55;2.42;;;8.40;99.90;;;;;;5080082;28;20619;-58
2023/01/13 13:16:24;;;;;;;11.13;2.45;;;8.50;99.90;;;;;;5078182;28;20044;-58
2023/01/13 13:18:50;;;;;;;8.73;2.50;;;8.50;99.90;;;;;;5079425;28;20055;-58
2023/01/13 13:21:15;;;;;;;11.68;2.10;;;8.60;99.90;;;;;;5062304;28;20052;-58
2023/01/13 13:23:51;;;;;;;7.10;1.90;;;8.60;99.90;;;;;;5077991;28;20048;-58
2023/01/13 13:26:41;;;;;;;9.70;1.70;;;8.70;99.90;;;;;;5064638;28;20570;-57
2023/01/13 13:29:17;;;;;;;13.02;2.60;;;8.70;99.90;;;;;;5088348;28;20055;-56
2023/01/13 13:32:12;;;;;;;12.55;2.28;;;8.60;99.90;;;;;;5089817;28;20044;-58
2023/01/13 13:35:03;;;;;;;9.35;1.92;;;8.40;99.90;;;;;;5052429;28;20043;-58
2023/01/13 13:49:11;;;;;;;12.82;1.92;;;8.20;99.90;;;;;;5086261;28;20055;-59
2023/01/13 13:52:02;;;;;;;11.50;2.00;;;8.20;99.90;;;;;;5087203;28;20430;-59
2023/01/13 13:54:28;;;;;;;11.85;2.15;;;8.40;99.90;;;;;;5083768;28;20049;-59
2023/01/13 13:56:54;;;;;;;9.98;2.13;;;8.40;99.90;;;;;;5087748;28;20043;-60
2023/01/13 13:59:32;;;;;;;11.57;1.95;;;8.40;99.90;;;;;;5087472;28;20036;-59
2023/01/13 14:02:00;;;;;;;13.50;2.28;;;8.30;99.90;;;;;;5068176;28;20059;-58
2023/01/13 14:04:31;;;;;;;13.93;2.75;;;8.40;99.90;;;;;;5088003;28;20051;-59
2023/01/13 14:07:19;;;;;;;10.87;2.03;;;8.30;99.90;;;;;;5096206;28;20044;-59
2023/01/13 14:09:53;;;;;;;6.72;1.88;;;8.20;99.90;;;;;;5092263;28;20784;-59
2023/01/13 14:12:18;;;;;;;13.85;2.42;;;8.20;99.90;;;;;;5082378;28;20450;-59
2023/01/13 14:14:45;;;;;;;9.35;2.47;;;8.10;99.90;;;;;;5082740;28;20044;-59
2023/01/13 14:17:19;;;;;;;18.77;2.42;;;8.10;99.90;;;;;;5065658;28;20052;-59